Time;durP1;ratioP1;P1;durP2;ratioP2;P2;SDS_P1;SDS_P2;PMS_P1;PMS_P2;Temp;Humidity;BMP_temperature;BMP_pressure;BME280_temperature;BME280_humidity;BME280_pressure;Samples;Min_cycle;Max_cycle;Signal;HPM_P1;HPM_P2
2022/09/02 00:04:56;;;;;;;24.83;15.40;;;;;;;;;;10377901;28;20014;-85
2022/09/02 00:09:59;;;;;;;21.03;13.07;;;;;;;;;;10361116;28;20115;-84
2022/09/02 00:14:59;;;;;;;24.08;14.20;;;;;;;;;;10375833;28;20104;-83
2022/09/02 00:19:59;;;;;;;22.05;14.02;;;;;;;;;;10361545;28;20026;-86
2022/09/02 00:24:59;;;;;;;21.17;14.23;;;;;;;;;;10359068;28;20014;-83
2022/09/02 00:30:00;;;;;;;22.60;13.63;;;;;;;;;;10358153;28;20021;-80
2022/09/02 00:35:02;;;;;;;26.02;14.40;;;;;;;;;;10343287;28;20516;-89
2022/09/02 00:40:03;;;;;;;21.13;13.35;;;;;;;;;;10362454;28;20022;-79
2022/09/02 00:45:05;;;;;;;22.58;13.40;;;;;;;;;;10365415;28;20045;-84
2022/09/02 00:50:10;;;;;;;23.02;14.05;;;;;;;;;;10383138;28;20518;-88
2022/09/02 00:55:12;;;;;;;21.95;13.32;;;;;;;;;;10383445;28;20113;-83
2022/09/02 01:00:16;;;;;;;19.73;13.82;;;;;;;;;;10367319;28;20467;-84
2022/09/02 01:05:17;;;;;;;22.40;13.65;;;;;;;;;;10372666;28;20036;-80
2022/09/02 01:10:19;;;;;;;23.27;14.75;;;;;;;;;;10366806;28;20491;-80
2022/09/02 01:15:20;;;;;;;21.30;14.43;;;;;;;;;;10367058;28;20419;-82
2022/09/02 01:20:21;;;;;;;20.90;14.43;;;;;;;;;;10380849;28;20037;-82
2022/09/02 01:25:23;;;;;;;19.05;14.18;;;;;;;;;;10368084;28;20022;-84
2022/09/02 01:30:24;;;;;;;25.50;14.07;;;;;;;;;;10366390;28;20539;-79
2022/09/02 01:35:24;;;;;;;23.63;14.35;;;;;;;;;;10362990;28;20119;-80
2022/09/02 01:40:26;;;;;;;21.13;12.93;;;;;;;;;;10380528;28;20092;-85
2022/09/02 01:45:28;;;;;;;21.35;13.85;;;;;;;;;;10364802;28;20534;-83
2022/09/02 01:50:28;;;;;;;22.52;11.23;;;;;;;;;;10362457;28;20072;-83
2022/09/02 01:55:29;;;;;;;16.63;10.67;;;;;;;;;;10357501;28;20125;-84
2022/09/02 02:00:29;;;;;;;17.15;10.15;;;;;;;;;;10355588;28;20438;-78
2022/09/02 02:05:30;;;;;;;17.92;10.25;;;;;;;;;;10363746;28;20033;-82
2022/09/02 02:10:31;;;;;;;13.77;8.80;;;;;;;;;;10362567;28;20530;-84
2022/09/02 02:15:31;;;;;;;9.80;7.40;;;;;;;;;;10363002;28;20024;-79
2022/09/02 02:20:31;;;;;;;10.60;7.03;;;;;;;;;;10378861;28;20484;-79
2022/09/02 02:25:32;;;;;;;13.52;7.35;;;;;;;;;;10378474;28;20546;-85
2022/09/02 02:30:32;;;;;;;10.35;7.45;;;;;;;;;;10362106;28;20022;-79
2022/09/02 02:35:32;;;;;;;12.47;7.93;;;;;;;;;;10345632;28;20111;-83
2022/09/02 02:40:33;;;;;;;8.38;5.38;;;;;;;;;;10377911;28;20029;-80
2022/09/02 02:45:33;;;;;;;10.50;6.65;;;;;;;;;;10362004;28;20029;-79
2022/09/02 02:50:34;;;;;;;11.35;6.63;;;;;;;;;;10378267;28;20029;-82
2022/09/02 02:55:34;;;;;;;9.70;6.30;;;;;;;;;;10376918;28;20029;-82
2022/09/02 03:00:39;;;;;;;9.52;6.43;;;;;;;;;;10378288;28;20033;-85
2022/09/02 03:05:42;;;;;;;8.88;6.53;;;;;;;;;;10378126;28;20087;-85
2022/09/02 03:10:43;;;;;;;9.52;6.10;;;;;;;;;;10377618;28;20389;-84
2022/09/02 03:15:43;;;;;;;9.88;6.68;;;;;;;;;;10360277;28;20025;-80
2022/09/02 03:20:44;;;;;;;12.05;6.85;;;;;;;;;;10360296;28;20121;-84
2022/09/02 03:25:44;;;;;;;10.38;7.32;;;;;;;;;;10359295;28;20022;-80
2022/09/02 03:30:51;;;;;;;10.20;7.55;;;;;;;;;;10359788;28;20120;-84
2022/09/02 03:35:51;;;;;;;11.13;7.35;;;;;;;;;;10376579;28;20554;-82
2022/09/02 03:40:51;;;;;;;12.43;7.35;;;;;;;;;;10361579;28;20113;-82
2022/09/02 03:45:52;;;;;;;12.70;7.55;;;;;;;;;;10359745;28;20540;-84
2022/09/02 03:50:52;;;;;;;14.32;9.15;;;;;;;;;;10377661;28;20029;-84
2022/09/02 03:55:53;;;;;;;13.60;7.57;;;;;;;;;;10375859;28;20411;-85
2022/09/02 04:00:54;;;;;;;13.63;8.82;;;;;;;;;;10359629;28;20149;-81
2022/09/02 04:05:54;;;;;;;13.63;8.40;;;;;;;;;;10359051;28;20083;-82
2022/09/02 04:10:55;;;;;;;15.40;9.25;;;;;;;;;;10362067;28;20037;-85
2022/09/02 04:15:55;;;;;;;13.85;8.70;;;;;;;;;;10384302;28;20022;-87
2022/09/02 04:20:58;;;;;;;18.15;8.52;;;;;;;;;;10367027;28;20621;-80
2022/09/02 04:26:01;;;;;;;12.50;9.15;;;;;;;;;;10366206;28;20026;-83
2022/09/02 04:31:03;;;;;;;17.25;9.45;;;;;;;;;;10365477;28;20033;-80
2022/09/02 04:36:05;;;;;;;12.02;8.48;;;;;;;;;;10362413;28;20053;-85
2022/09/02 04:41:10;;;;;;;12.73;8.38;;;;;;;;;;10365123;28;20022;-81
2022/09/02 04:46:14;;;;;;;17.08;10.23;;;;;;;;;;10365966;28;20026;-79
2022/09/02 04:51:15;;;;;;;14.20;9.10;;;;;;;;;;10366915;28;20120;-81
2022/09/02 04:56:17;;;;;;;15.20;9.43;;;;;;;;;;10365824;28;20098;-80
2022/09/02 05:01:25;;;;;;;15.90;8.35;;;;;;;;;;10355536;28;20037;-85
2022/09/02 05:06:26;;;;;;;;;;;;;;;;;;10367422;28;20037;-85
2022/09/02 05:11:30;;;;;;;16.77;9.77;;;;;;;;;;10379087;28;20303;-84
2022/09/02 05:16:32;;;;;;;17.30;9.65;;;;;;;;;;10356838;28;20034;-84
2022/09/02 05:21:32;;;;;;;13.48;8.60;;;;;;;;;;10378887;28;20034;-80
2022/09/02 05:26:34;;;;;;;11.90;7.75;;;;;;;;;;10360424;28;20432;-83
2022/09/02 05:31:35;;;;;;;13.38;8.60;;;;;;;;;;10354931;28;20069;-81
2022/09/02 05:36:35;;;;;;;11.90;9.10;;;;;;;;;;10378989;28;20235;-79
2022/09/02 05:41:35;;;;;;;13.47;9.50;;;;;;;;;;10357396;28;20416;-79
2022/09/02 05:46:36;;;;;;;10.53;8.03;;;;;;;;;;10353556;28;20029;-80
2022/09/02 05:51:37;;;;;;;14.70;8.40;;;;;;;;;;10351315;28;20101;-82
2022/09/02 05:56:41;;;;;;;11.38;8.32;;;;;;;;;;10366024;28;21126;-88
2022/09/02 06:01:42;;;;;;;11.65;8.00;;;;;;;;;;10352405;28;20030;-85
2022/09/02 06:06:42;;;;;;;14.43;7.90;;;;;;;;;;10348184;28;20119;-82
2022/09/02 06:11:44;;;;;;;13.50;8.43;;;;;;;;;;10339729;28;20442;-79
2022/09/02 06:16:45;;;;;;;12.88;7.47;;;;;;;;;;10352875;28;20049;-82
2022/09/02 06:21:45;;;;;;;7.72;6.07;;;;;;;;;;10327167;28;20113;-81
2022/09/02 06:26:46;;;;;;;14.10;9.05;;;;;;;;;;10341429;28;20026;-84
2022/09/02 06:31:47;;;;;;;9.30;6.70;;;;;;;;;;10350141;28;20029;-85
2022/09/02 06:36:48;;;;;;;11.10;7.25;;;;;;;;;;10353278;28;20335;-84
2022/09/02 06:41:49;;;;;;;10.25;6.38;;;;;;;;;;10353080;28;20028;-82
2022/09/02 06:46:53;;;;;;;9.40;6.05;;;;;;;;;;10343021;28;20397;-80
2022/09/02 06:51:55;;;;;;;15.18;6.97;;;;;;;;;;10339705;28;20037;-84
2022/09/02 06:56:56;;;;;;;12.25;7.05;;;;;;;;;;10356946;28;20116;-84
2022/09/02 07:01:56;;;;;;;12.70;6.93;;;;;;;;;;10361287;28;20036;-74
2022/09/02 07:06:57;;;;;;;13.20;8.73;;;;;;;;;;10333551;28;20093;-79
2022/09/02 07:12:01;;;;;;;8.47;6.37;;;;;;;;;;10321262;28;20169;-81
2022/09/02 07:17:01;;;;;;;11.13;5.82;;;;;;;;;;10344380;28;20022;-80
2022/09/02 07:22:02;;;;;;;9.40;6.82;;;;;;;;;;10362777;28;20022;-80
2022/09/02 07:27:04;;;;;;;9.35;6.38;;;;;;;;;;10348679;28;20022;-79
2022/09/02 07:32:04;;;;;;;10.52;6.13;;;;;;;;;;10348262;28;20030;-79
2022/09/02 07:37:05;;;;;;;9.37;6.70;;;;;;;;;;10343634;28;20523;-77
2022/09/02 07:42:05;;;;;;;9.75;6.57;;;;;;;;;;10346797;28;20037;-82
2022/09/02 07:47:06;;;;;;;7.55;5.50;;;;;;;;;;10344523;28;20493;-82
2022/09/02 07:52:06;;;;;;;10.57;6.65;;;;;;;;;;10355284;28;20031;-81
2022/09/02 07:57:07;;;;;;;10.07;6.60;;;;;;;;;;10361938;28;20026;-85
2022/09/02 08:02:08;;;;;;;9.60;5.93;;;;;;;;;;10336504;28;20148;-83
2022/09/02 08:07:09;;;;;;;9.25;5.15;;;;;;;;;;10362726;28;20124;-84
2022/09/02 08:12:09;;;;;;;10.75;5.43;;;;;;;;;;10358024;28;20113;-80
2022/09/02 08:17:09;;;;;;;9.52;6.40;;;;;;;;;;10346601;28;20017;-83
2022/09/02 08:22:10;;;;;;;12.00;6.63;;;;;;;;;;10340410;28;20025;-84
2022/09/02 08:27:10;;;;;;;10.75;7.07;;;;;;;;;;10345973;28;20018;-85
2022/09/02 08:32:10;;;;;;;18.17;8.40;;;;;;;;;;10343993;28;20495;-81
2022/09/02 08:37:11;;;;;;;19.35;8.75;;;;;;;;;;10348613;28;20292;-84
2022/09/02 08:42:14;;;;;;;12.70;7.60;;;;;;;;;;10351492;28;20025;-81
2022/09/02 08:47:17;;;;;;;18.02;8.82;;;;;;;;;;10351609;28;20048;-81
2022/09/02 08:52:32;;;;;;;13.18;7.70;;;;;;;;;;10344851;28;20021;-83
2022/09/02 08:57:34;;;;;;;13.80;8.23;;;;;;;;;;10342584;28;20026;-80
2022/09/02 09:02:40;;;;;;;13.38;8.57;;;;;;;;;;10358942;28;20040;-81
2022/09/02 09:07:56;;;;;;;14.38;8.57;;;;;;;;;;10354498;28;20026;-82
2022/09/02 09:13:19;;;;;;;19.13;8.93;;;;;;;;;;10370863;28;20026;-81
2022/09/02 09:18:23;;;;;;;19.70;9.10;;;;;;;;;;10339143;28;20033;-85
2022/09/02 09:23:28;;;;;;;13.85;8.77;;;;;;;;;;10362656;28;20022;-81
2022/09/02 09:29:03;;;;;;;13.07;9.00;;;;;;;;;;10372117;28;20049;-84
2022/09/02 09:34:04;;;;;;;13.30;9.25;;;;;;;;;;10374347;28;20051;-85
2022/09/02 09:39:17;;;;;;;22.67;10.15;;;;;;;;;;10351685;28;20034;-84
2022/09/02 09:44:36;;;;;;;13.73;8.25;;;;;;;;;;10357943;28;20388;-83
2022/09/02 09:49:36;;;;;;;18.60;9.15;;;;;;;;;;10343194;28;20109;-81
2022/09/02 09:54:37;;;;;;;11.00;7.65;;;;;;;;;;10342252;28;20021;-82
2022/09/02 09:59:46;;;;;;;14.10;8.48;;;;;;;;;;10337620;28;20053;-85
2022/09/02 10:04:46;;;;;;;17.63;9.23;;;;;;;;;;10341472;28;20477;-83
2022/09/02 10:09:47;;;;;;;16.15;9.15;;;;;;;;;;10335895;28;20079;-83
2022/09/02 10:14:48;;;;;;;23.55;9.80;;;;;;;;;;10340502;28;20498;-82
2022/09/02 10:19:54;;;;;;;13.55;9.02;;;;;;;;;;10327458;28;20034;-80
2022/09/02 10:25:00;;;;;;;19.00;10.35;;;;;;;;;;10334424;28;20014;-82
2022/09/02 10:30:18;;;;;;;13.43;9.90;;;;;;;;;;10353335;28;20054;-84
2022/09/02 10:35:38;;;;;;;18.20;9.03;;;;;;;;;;10338119;28;20454;-83
2022/09/02 10:40:43;;;;;;;11.75;7.75;;;;;;;;;;10346455;28;20025;-81
2022/09/02 10:45:48;;;;;;;13.02;7.75;;;;;;;;;;10352698;28;20023;-79
2022/09/02 10:51:08;;;;;;;18.60;9.15;;;;;;;;;;10357852;28;20092;-80
2022/09/02 10:56:13;;;;;;;10.38;7.07;;;;;;;;;;10343811;28;20018;-83
2022/09/02 11:01:25;;;;;;;11.95;7.18;;;;;;;;;;10348655;28;20021;-81
2022/09/02 11:06:34;;;;;;;11.27;6.80;;;;;;;;;;10342385;28;20057;-80
2022/09/02 11:11:47;;;;;;;12.70;7.57;;;;;;;;;;10350047;28;20531;-78
2022/09/02 11:16:54;;;;;;;13.25;8.77;;;;;;;;;;10339557;28;20085;-82
2022/09/02 11:22:00;;;;;;;11.90;8.25;;;;;;;;;;10351441;28;20030;-80
2022/09/02 11:27:19;;;;;;;15.43;8.88;;;;;;;;;;10357872;28;20101;-81
2022/09/02 11:32:26;;;;;;;13.60;8.63;;;;;;;;;;10360421;28;20041;-84
2022/09/02 11:37:27;;;;;;;;;;;;;;;;;;10338625;28;20054;-81
2022/09/02 11:42:36;;;;;;;12.07;8.88;;;;;;;;;;10341625;28;19914;-83
2022/09/02 11:48:02;;;;;;;11.43;7.70;;;;;;;;;;10350940;28;20437;-81
2022/09/02 11:53:09;;;;;;;17.85;9.38;;;;;;;;;;10333289;28;20145;-80
2022/09/02 11:58:10;;;;;;;11.43;8.43;;;;;;;;;;10351423;28;20025;-83
2022/09/02 12:03:13;;;;;;;15.82;9.45;;;;;;;;;;10322253;28;20840;-82
2022/09/02 12:08:34;;;;;;;18.85;10.25;;;;;;;;;;10373234;28;20014;-80
2022/09/02 12:19:24;;;;;;;17.00;10.07;;;;;;;;;;10351162;28;20232;-84
2022/09/02 12:24:24;;;;;;;16.60;10.43;;;;;;;;;;10349515;28;20026;-84
2022/09/02 12:29:25;;;;;;;20.38;10.95;;;;;;;;;;10374371;28;20033;-82
2022/09/02 12:34:27;;;;;;;12.70;8.73;;;;;;;;;;10375897;28;20108;-84
2022/09/02 12:39:27;;;;;;;17.95;10.07;;;;;;;;;;10351339;28;20022;-82
2022/09/02 12:44:47;;;;;;;17.23;10.80;;;;;;;;;;10358893;28;20025;-82
2022/09/02 12:49:51;;;;;;;21.80;10.43;;;;;;;;;;10343586;28;20025;-80
2022/09/02 12:54:53;;;;;;;20.33;11.82;;;;;;;;;;10347434;28;20109;-81
2022/09/02 12:59:57;;;;;;;20.15;12.43;;;;;;;;;;10343372;28;20044;-84
2022/09/02 13:04:57;;;;;;;21.38;12.93;;;;;;;;;;10371917;28;20026;-86
2022/09/02 13:10:15;;;;;;;21.20;12.45;;;;;;;;;;10333033;28;20022;-81
2022/09/02 13:15:34;;;;;;;17.77;12.35;;;;;;;;;;10339467;28;20030;-78
2022/09/02 13:20:34;;;;;;;22.90;12.80;;;;;;;;;;10361633;28;20029;-81
2022/09/02 13:25:44;;;;;;;24.88;13.18;;;;;;;;;;10360067;28;20025;-82
2022/09/02 13:31:03;;;;;;;24.73;13.43;;;;;;;;;;10351622;28;20022;-82
2022/09/02 13:36:05;;;;;;;26.35;13.45;;;;;;;;;;10442144;22;20060;-80
2022/09/02 13:41:08;;;;;;;28.15;15.73;;;;;;;;;;10410740;28;20423;-82
2022/09/02 13:46:10;;;;;;;24.75;15.32;;;;;;;;;;10401837;28;20122;-81
2022/09/02 13:51:13;;;;;;;22.42;13.88;;;;;;;;;;10392589;28;20106;-77
2022/09/02 13:56:14;;;;;;;20.02;11.15;;;;;;;;;;10393722;28;20060;-77
2022/09/02 14:01:17;;;;;;;23.80;10.60;;;;;;;;;;10387695;28;20117;-80
2022/09/02 14:06:19;;;;;;;33.92;14.38;;;;;;;;;;10400411;28;20052;-77
2022/09/02 14:11:20;;;;;;;29.73;16.15;;;;;;;;;;10366092;28;20121;-76
2022/09/02 14:16:25;;;;;;;27.40;13.95;;;;;;;;;;10361783;28;20022;-76
2022/09/02 14:21:25;;;;;;;33.95;16.75;;;;;;;;;;10363739;28;20458;-77
2022/09/02 14:26:36;;;;;;;31.08;16.15;;;;;;;;;;10371898;28;20098;-76
2022/09/02 14:31:37;;;;;;;38.78;17.20;;;;;;;;;;10384713;28;20533;-76
2022/09/02 14:36:37;;;;;;;30.05;18.35;;;;;;;;;;10384684;28;20057;-76
2022/09/02 14:41:41;;;;;;;32.38;16.80;;;;;;;;;;10385991;28;20036;-81
2022/09/02 14:46:45;;;;;;;27.73;15.88;;;;;;;;;;10388414;28;20041;-78
2022/09/02 14:51:50;;;;;;;35.72;17.88;;;;;;;;;;10387648;28;20065;-77
2022/09/02 14:56:51;;;;;;;32.67;17.85;;;;;;;;;;10386642;28;20550;-75
2022/09/02 15:01:53;;;;;;;32.30;17.95;;;;;;;;;;10384652;28;20109;-77
2022/09/02 15:06:53;;;;;;;26.20;15.68;;;;;;;;;;10384330;28;20041;-76
2022/09/02 15:11:53;;;;;;;29.58;16.95;;;;;;;;;;10388064;28;20112;-80
2022/09/02 15:16:54;;;;;;;35.83;19.45;;;;;;;;;;10392115;28;20034;-79
2022/09/02 15:21:54;;;;;;;33.22;16.90;;;;;;;;;;10384893;28;20033;-75
2022/09/02 15:26:54;;;;;;;30.83;17.58;;;;;;;;;;10376415;28;20053;-75
2022/09/02 15:31:58;;;;;;;34.22;18.00;;;;;;;;;;10376427;28;20349;-84
2022/09/02 15:37:02;;;;;;;35.72;19.60;;;;;;;;;;10375985;28;20065;-79
2022/09/02 15:42:02;;;;;;;33.25;19.25;;;;;;;;;;10390000;28;20628;-80
2022/09/02 15:47:03;;;;;;;32.13;19.30;;;;;;;;;;10377192;28;20017;-79
2022/09/02 15:52:03;;;;;;;33.00;16.63;;;;;;;;;;10379060;28;20538;-80
2022/09/02 15:57:04;;;;;;;21.83;10.98;;;;;;;;;;10381737;28;20261;-80
2022/09/02 16:02:04;;;;;;;21.63;11.95;;;;;;;;;;10378999;28;20037;-81
2022/09/02 16:07:06;;;;;;;18.15;10.82;;;;;;;;;;10391612;28;20570;-79
2022/09/02 16:12:06;;;;;;;19.10;11.18;;;;;;;;;;10379021;28;20080;-74
2022/09/02 16:17:07;;;;;;;19.13;12.37;;;;;;;;;;10392770;28;20172;-79
2022/09/02 16:22:08;;;;;;;19.15;12.68;;;;;;;;;;10384512;28;20029;-77
2022/09/02 16:27:08;;;;;;;25.40;14.38;;;;;;;;;;10394267;28;20014;-77
2022/09/02 16:32:09;;;;;;;27.25;15.40;;;;;;;;;;10388273;28;20053;-79
2022/09/02 16:37:09;;;;;;;23.83;15.30;;;;;;;;;;10398882;28;20155;-78
2022/09/02 16:42:09;;;;;;;36.42;16.38;;;;;;;;;;10387025;28;20365;-80
2022/09/02 16:47:09;;;;;;;28.05;16.85;;;;;;;;;;10389812;28;20025;-78
2022/09/02 16:52:10;;;;;;;32.33;18.42;;;;;;;;;;10395623;28;20022;-80
2022/09/02 16:57:10;;;;;;;26.33;15.73;;;;;;;;;;10390633;28;20605;-79
2022/09/02 17:02:10;;;;;;;24.63;14.70;;;;;;;;;;10390762;28;20021;-77
2022/09/02 17:07:10;;;;;;;24.17;13.43;;;;;;;;;;10394842;28;20021;-80
2022/09/02 17:12:11;;;;;;;21.67;12.05;;;;;;;;;;10396795;28;20026;-79
2022/09/02 17:17:13;;;;;;;17.80;10.32;;;;;;;;;;10392781;28;20630;-76
2022/09/02 17:22:14;;;;;;;21.92;10.30;;;;;;;;;;10392755;28;20049;-81
2022/09/02 17:27:14;;;;;;;18.45;9.35;;;;;;;;;;10388551;28;20120;-79
2022/09/02 17:32:15;;;;;;;17.05;9.40;;;;;;;;;;10399086;28;20037;-78
2022/09/02 17:37:15;;;;;;;17.50;9.73;;;;;;;;;;10399446;28;20119;-80
2022/09/02 17:42:16;;;;;;;15.82;9.18;;;;;;;;;;10396370;28;20033;-79
2022/09/02 17:47:18;;;;;;;16.25;9.70;;;;;;;;;;10389484;28;20153;-77
2022/09/02 17:52:22;;;;;;;17.05;9.27;;;;;;;;;;10391452;28;20061;-76
2022/09/02 17:57:32;;;;;;;16.13;9.63;;;;;;;;;;10381179;28;20109;-77
2022/09/02 18:02:36;;;;;;;20.38;10.90;;;;;;;;;;10397548;28;20021;-77
2022/09/02 18:08:02;;;;;;;21.90;11.38;;;;;;;;;;10398833;28;20024;-78
2022/09/02 18:13:04;;;;;;;20.40;11.10;;;;;;;;;;10392147;28;20022;-76
2022/09/02 18:18:05;;;;;;;17.50;10.50;;;;;;;;;;10380999;28;20440;-78
2022/09/02 18:23:24;;;;;;;21.10;10.45;;;;;;;;;;10389715;28;20029;-75
2022/09/02 18:28:43;;;;;;;22.63;10.73;;;;;;;;;;10389848;28;20075;-75
2022/09/02 18:33:46;;;;;;;22.75;10.10;;;;;;;;;;10381493;28;20053;-79
2022/09/02 18:39:10;;;;;;;17.13;9.65;;;;;;;;;;10391064;28;20641;-78
2022/09/02 18:44:21;;;;;;;17.45;10.15;;;;;;;;;;10378499;28;20041;-75
2022/09/02 18:49:22;;;;;;;15.10;9.40;;;;;;;;;;10376381;28;20049;-75
2022/09/02 18:54:29;;;;;;;16.20;9.95;;;;;;;;;;10376940;28;20397;-77
2022/09/02 18:59:32;;;;;;;19.60;9.98;;;;;;;;;;10381802;28;20032;-79
2022/09/02 19:04:33;;;;;;;16.50;10.25;;;;;;;;;;10385908;28;20052;-75
2022/09/02 19:09:33;;;;;;;16.63;9.48;;;;;;;;;;10383934;28;20029;-75
2022/09/02 19:14:34;;;;;;;16.00;9.38;;;;;;;;;;10377664;28;20460;-80
2022/09/02 19:19:34;;;;;;;18.45;10.32;;;;;;;;;;10369818;28;20038;-79
2022/09/02 19:24:41;;;;;;;21.45;12.75;;;;;;;;;;10360349;28;20054;-80
2022/09/02 19:29:44;;;;;;;26.45;13.43;;;;;;;;;;10382976;28;20045;-75
2022/09/02 19:34:45;;;;;;;25.65;13.57;;;;;;;;;;10386134;28;20041;-75
2022/09/02 19:39:47;;;;;;;23.60;12.30;;;;;;;;;;10393260;28;20032;-75
2022/09/02 19:44:48;;;;;;;22.10;10.98;;;;;;;;;;10392227;28;20021;-75
2022/09/02 19:49:49;;;;;;;21.55;11.00;;;;;;;;;;10390317;28;20087;-76
2022/09/02 19:54:50;;;;;;;18.92;11.02;;;;;;;;;;10388887;28;20038;-75
2022/09/02 19:59:50;;;;;;;22.75;10.35;;;;;;;;;;10388019;28;20519;-77
2022/09/02 20:04:52;;;;;;;16.52;9.65;;;;;;;;;;10381898;28;20492;-77
2022/09/02 20:09:52;;;;;;;20.38;12.07;;;;;;;;;;10390402;28;20487;-80
2022/09/02 20:14:53;;;;;;;19.52;10.95;;;;;;;;;;10390554;28;20029;-75
2022/09/02 20:19:54;;;;;;;21.70;11.85;;;;;;;;;;10390972;28;20029;-77
2022/09/02 20:24:55;;;;;;;22.40;10.38;;;;;;;;;;10391130;28;20014;-79
2022/09/02 20:29:59;;;;;;;20.48;10.50;;;;;;;;;;10388316;28;20025;-76
2022/09/02 20:35:10;;;;;;;23.52;11.55;;;;;;;;;;10384943;28;20053;-75
2022/09/02 20:40:25;;;;;;;16.40;9.30;;;;;;;;;;10384197;28;20025;-79
2022/09/02 20:45:30;;;;;;;18.73;9.35;;;;;;;;;;10386311;28;20033;-75
2022/09/02 20:50:36;;;;;;;17.48;9.15;;;;;;;;;;10384614;28;20029;-76
2022/09/02 20:56:00;;;;;;;15.60;8.45;;;;;;;;;;10389050;28;20129;-78
2022/09/02 21:01:21;;;;;;;13.07;8.05;;;;;;;;;;10385708;28;20025;-77
2022/09/02 21:06:23;;;;;;;14.25;8.40;;;;;;;;;;10393062;28;20109;-80
2022/09/02 21:11:25;;;;;;;12.02;7.15;;;;;;;;;;10401307;28;20487;-74
2022/09/02 21:16:31;;;;;;;12.68;7.70;;;;;;;;;;10399170;28;20025;-80
2022/09/02 21:21:48;;;;;;;13.93;7.03;;;;;;;;;;10398786;28;20029;-77
2022/09/02 21:26:50;;;;;;;14.07;7.23;;;;;;;;;;10389742;28;20434;-77
2022/09/02 21:31:50;;;;;;;13.35;7.22;;;;;;;;;;10402520;28;20037;-75
2022/09/02 21:36:52;;;;;;;12.70;7.63;;;;;;;;;;10386364;28;20130;-79
2022/09/02 21:42:01;;;;;;;12.90;6.47;;;;;;;;;;10388764;28;20080;-75
2022/09/02 21:47:08;;;;;;;13.48;7.00;;;;;;;;;;10358969;28;20084;-79
2022/09/02 21:52:17;;;;;;;14.18;6.55;;;;;;;;;;10393701;28;20018;-79
2022/09/02 21:57:29;;;;;;;10.85;5.80;;;;;;;;;;10392748;28;20029;-79
2022/09/02 22:02:32;;;;;;;10.65;6.10;;;;;;;;;;10401214;28;20029;-74
2022/09/02 22:07:40;;;;;;;14.13;6.75;;;;;;;;;;10401605;28;20558;-78
2022/09/02 22:12:42;;;;;;;12.27;5.97;;;;;;;;;;10372649;28;20041;-77
2022/09/02 22:17:45;;;;;;;11.43;6.45;;;;;;;;;;10392296;28;20053;-77
2022/09/02 22:22:54;;;;;;;11.63;6.05;;;;;;;;;;10402562;28;20021;-74
2022/09/02 22:27:55;;;;;;;12.13;6.50;;;;;;;;;;10400970;28;20021;-76
2022/09/02 22:33:05;;;;;;;11.20;5.97;;;;;;;;;;10395959;28;20029;-78
2022/09/02 22:38:20;;;;;;;12.75;6.35;;;;;;;;;;10392626;28;20096;-78
2022/09/02 22:43:22;;;;;;;11.95;5.55;;;;;;;;;;10396752;28;20013;-74
2022/09/02 22:53:49;;;;;;;12.15;5.22;;;;;;;;;;10396730;28;20088;-75
2022/09/02 22:58:52;;;;;;;10.68;5.25;;;;;;;;;;10391524;28;20211;-82
2022/09/02 23:03:55;;;;;;;10.05;5.88;;;;;;;;;;10399169;28;20411;-75
2022/09/02 23:09:09;;;;;;;12.73;5.80;;;;;;;;;;10399757;28;20065;-80
2022/09/02 23:14:25;;;;;;;14.90;6.63;;;;;;;;;;10396212;28;20104;-74
2022/09/02 23:19:37;;;;;;;11.02;5.78;;;;;;;;;;10399448;28;20164;-75
2022/09/02 23:24:47;;;;;;;10.07;5.80;;;;;;;;;;10398625;28;20021;-76
2022/09/02 23:29:50;;;;;;;9.30;4.65;;;;;;;;;;10399019;28;20025;-75
2022/09/02 23:35:10;;;;;;;9.40;6.43;;;;;;;;;;10398715;28;20059;-78
2022/09/02 23:40:10;;;;;;;10.82;5.78;;;;;;;;;;10398069;28;20037;-75
2022/09/02 23:45:29;;;;;;;10.93;5.05;;;;;;;;;;10398657;28;20048;-75
2022/09/02 23:50:48;;;;;;;11.25;5.80;;;;;;;;;;10398575;28;20026;-79
2022/09/02 23:56:04;;;;;;;12.75;5.68;;;;;;;;;;10397231;28;20032;-79
